This is the latest recevied weather packets stored in our database for station/object HA6IFZ-10. If no packets are shown the sender has not sent any weather packets the latest 10 day(s).
| Time | Temp. | Humidity | Pressure | Rain* | Wind** | Luminosity | Snow |
|---|---|---|---|---|---|---|---|
| 1787794384 | 19.44° C | 54% | 1027.1 hPa | - | - | - | - |
| 1787793484 | 18.33° C | 57% | 1027.1 hPa | - | - | - | - |
| 1787792584 | 17.78° C | 60% | 1027.2 hPa | - | - | - | - |
| 1787791683 | 18.33° C | 58% | 1027.3 hPa | - | - | - | - |
| 1787790783 | 18.89° C | 56% | 1027.4 hPa | - | - | - | - |
| 1787789883 | 18.89° C | 57% | 1027.4 hPa | - | - | - | - |
| 1787788983 | 19.44° C | 54% | 1027.3 hPa | - | - | - | - |
| 1787788083 | 18.89° C | 55% | 1027.4 hPa | - | - | - | - |
| 1787787183 | 18.89° C | 57% | 1027.3 hPa | - | - | - | - |
| 1787786282 | 20° C | 53% | 1027.3 hPa | - | - | - | - |
| 1787784484 | 20° C | 54% | 1027.2 hPa | - | - | - | - |
| 1787783584 | 20° C | 54% | 1027.1 hPa | - | - | - | - |
| 1787782684 | 20° C | 54% | 1027 hPa | - | - | - | - |
| 1787781784 | 20° C | 56% | 1027 hPa | - | - | - | - |
| 1787780884 | 18.89° C | 60% | 1027 hPa | - | - | - | - |
| 1787779984 | 19.44° C | 57% | 1026.9 hPa | - | - | - | - |
| 1787779084 | 18.89° C | 59% | 1027 hPa | - | - | - | - |
| 1787778184 | 18.89° C | 58% | 1027 hPa | - | - | - | - |
| 1787777284 | 18.89° C | 58% | 1027 hPa | - | - | - | - |
| 1787776384 | 19.44° C | 56% | 1026.8 hPa | - | - | - | - |
| 1787775483 | 19.44° C | 55% | 1026.8 hPa | - | - | - | - |
| 1787774583 | 20° C | 52% | 1026.7 hPa | - | - | - | - |
| 1787773683 | 20.56° C | 51% | 1026.7 hPa | - | - | - | - |
| 1787772783 | 21.11° C | 47% | 1026.5 hPa | - | - | - | - |
| 1787771883 | 21.67° C | 46% | 1026.5 hPa | - | - | - | - |
* Rain since midnight (hover to see other rain measurements)
** Current wind speed in m/s (hover to see current wind gust speed)